sensor_id;sensor_type;location;lat;lon;timestamp;P1;durP1;ratioP1;P2;durP2;ratioP2
69256;SDS011;56376;53.356;-1.748;2024-01-27T00:01:13;16.37;;;5.40;;
69256;SDS011;56376;53.356;-1.748;2024-01-27T00:03:39;17.37;;;4.90;;
69256;SDS011;56376;53.356;-1.748;2024-01-27T00:06:05;8.73;;;3.73;;
69256;SDS011;56376;53.356;-1.748;2024-01-27T00:08:30;7.40;;;3.27;;
69256;SDS011;56376;53.356;-1.748;2024-01-27T00:10:56;5.60;;;2.50;;
69256;SDS011;56376;53.356;-1.748;2024-01-27T00:13:21;15.83;;;4.63;;
69256;SDS011;56376;53.356;-1.748;2024-01-27T00:15:47;8.40;;;3.63;;
69256;SDS011;56376;53.356;-1.748;2024-01-27T00:18:12;7.10;;;3.43;;
69256;SDS011;56376;53.356;-1.748;2024-01-27T00:20:38;11.27;;;3.73;;
69256;SDS011;56376;53.356;-1.748;2024-01-27T00:23:03;8.47;;;2.73;;
69256;SDS011;56376;53.356;-1.748;2024-01-27T00:25:29;9.33;;;3.07;;
69256;SDS011;56376;53.356;-1.748;2024-01-27T00:27:55;6.87;;;3.13;;
69256;SDS011;56376;53.356;-1.748;2024-01-27T00:30:20;5.80;;;2.03;;
69256;SDS011;56376;53.356;-1.748;2024-01-27T00:32:47;5.20;;;2.70;;
69256;SDS011;56376;53.356;-1.748;2024-01-27T00:35:12;4.10;;;2.43;;
69256;SDS011;56376;53.356;-1.748;2024-01-27T00:37:40;4.93;;;2.10;;
69256;SDS011;56376;53.356;-1.748;2024-01-27T00:40:09;5.40;;;2.30;;
69256;SDS011;56376;53.356;-1.748;2024-01-27T00:42:36;6.93;;;2.40;;
69256;SDS011;56376;53.356;-1.748;2024-01-27T00:45:03;6.73;;;2.90;;
69256;SDS011;56376;53.356;-1.748;2024-01-27T00:47:30;9.27;;;3.07;;
69256;SDS011;56376;53.356;-1.748;2024-01-27T00:49:56;9.57;;;2.40;;
69256;SDS011;56376;53.356;-1.748;2024-01-27T00:52:21;7.93;;;2.03;;
69256;SDS011;56376;53.356;-1.748;2024-01-27T00:54:47;8.13;;;2.33;;
69256;SDS011;56376;53.356;-1.748;2024-01-27T00:57:13;9.93;;;3.80;;
69256;SDS011;56376;53.356;-1.748;2024-01-27T00:59:38;9.47;;;2.27;;
69256;SDS011;56376;53.356;-1.748;2024-01-27T01:02:04;6.77;;;2.50;;
69256;SDS011;56376;53.356;-1.748;2024-01-27T01:04:29;6.20;;;1.87;;
69256;SDS011;56376;53.356;-1.748;2024-01-27T01:06:55;11.07;;;3.03;;
69256;SDS011;56376;53.356;-1.748;2024-01-27T01:09:21;6.83;;;2.30;;
69256;SDS011;56376;53.356;-1.748;2024-01-27T01:11:46;4.67;;;2.00;;
69256;SDS011;56376;53.356;-1.748;2024-01-27T01:14:12;6.37;;;2.20;;
69256;SDS011;56376;53.356;-1.748;2024-01-27T01:16:38;11.30;;;3.20;;
69256;SDS011;56376;53.356;-1.748;2024-01-27T01:19:04;9.83;;;3.17;;
69256;SDS011;56376;53.356;-1.748;2024-01-27T01:21:30;11.13;;;3.03;;
69256;SDS011;56376;53.356;-1.748;2024-01-27T01:23:56;9.80;;;3.03;;
69256;SDS011;56376;53.356;-1.748;2024-01-27T01:26:21;10.90;;;2.87;;
69256;SDS011;56376;53.356;-1.748;2024-01-27T01:28:47;8.03;;;2.97;;
69256;SDS011;56376;53.356;-1.748;2024-01-27T01:31:12;10.13;;;2.90;;
69256;SDS011;56376;53.356;-1.748;2024-01-27T01:33:38;8.47;;;2.80;;
69256;SDS011;56376;53.356;-1.748;2024-01-27T01:36:04;10.13;;;3.30;;
69256;SDS011;56376;53.356;-1.748;2024-01-27T01:38:29;9.73;;;2.70;;
69256;SDS011;56376;53.356;-1.748;2024-01-27T01:40:55;8.30;;;2.47;;
69256;SDS011;56376;53.356;-1.748;2024-01-27T01:43:21;11.20;;;2.47;;
69256;SDS011;56376;53.356;-1.748;2024-01-27T01:45:46;9.30;;;2.40;;
69256;SDS011;56376;53.356;-1.748;2024-01-27T01:48:12;5.83;;;1.87;;
69256;SDS011;56376;53.356;-1.748;2024-01-27T01:50:37;7.37;;;2.07;;
69256;SDS011;56376;53.356;-1.748;2024-01-27T01:55:48;9.10;;;2.87;;
69256;SDS011;56376;53.356;-1.748;2024-01-27T01:58:15;5.97;;;1.70;;
69256;SDS011;56376;53.356;-1.748;2024-01-27T02:00:41;5.93;;;2.33;;
69256;SDS011;56376;53.356;-1.748;2024-01-27T02:03:13;5.97;;;2.63;;
69256;SDS011;56376;53.356;-1.748;2024-01-27T02:05:39;5.30;;;1.93;;
69256;SDS011;56376;53.356;-1.748;2024-01-27T02:08:05;6.53;;;1.90;;
69256;SDS011;56376;53.356;-1.748;2024-01-27T02:10:31;8.00;;;1.80;;
69256;SDS011;56376;53.356;-1.748;2024-01-27T02:13:03;3.17;;;1.57;;
69256;SDS011;56376;53.356;-1.748;2024-01-27T02:15:30;4.50;;;1.87;;
69256;SDS011;56376;53.356;-1.748;2024-01-27T02:17:56;3.33;;;1.80;;
69256;SDS011;56376;53.356;-1.748;2024-01-27T02:20:21;7.10;;;2.00;;
69256;SDS011;56376;53.356;-1.748;2024-01-27T02:22:47;5.80;;;2.07;;
69256;SDS011;56376;53.356;-1.748;2024-01-27T02:25:12;7.07;;;1.90;;
69256;SDS011;56376;53.356;-1.748;2024-01-27T02:27:38;3.80;;;1.50;;
69256;SDS011;56376;53.356;-1.748;2024-01-27T02:30:03;3.10;;;1.50;;
69256;SDS011;56376;53.356;-1.748;2024-01-27T02:32:29;5.03;;;1.30;;
69256;SDS011;56376;53.356;-1.748;2024-01-27T02:34:55;5.87;;;2.13;;
69256;SDS011;56376;53.356;-1.748;2024-01-27T02:37:20;6.47;;;2.67;;
69256;SDS011;56376;53.356;-1.748;2024-01-27T02:39:46;4.87;;;1.90;;
69256;SDS011;56376;53.356;-1.748;2024-01-27T02:44:55;4.22;;;1.90;;
69256;SDS011;56376;53.356;-1.748;2024-01-27T02:47:21;10.37;;;2.37;;
69256;SDS011;56376;53.356;-1.748;2024-01-27T02:49:46;11.07;;;2.70;;
69256;SDS011;56376;53.356;-1.748;2024-01-27T02:52:12;6.57;;;2.27;;
69256;SDS011;56376;53.356;-1.748;2024-01-27T02:54:39;7.60;;;2.07;;
69256;SDS011;56376;53.356;-1.748;2024-01-27T02:57:04;4.47;;;1.83;;
69256;SDS011;56376;53.356;-1.748;2024-01-27T02:59:30;5.07;;;2.03;;
69256;SDS011;56376;53.356;-1.748;2024-01-27T03:04:39;7.07;;;1.90;;
69256;SDS011;56376;53.356;-1.748;2024-01-27T03:07:05;7.73;;;2.40;;
69256;SDS011;56376;53.356;-1.748;2024-01-27T03:09:30;6.37;;;2.17;;
69256;SDS011;56376;53.356;-1.748;2024-01-27T03:11:59;5.07;;;1.93;;
69256;SDS011;56376;53.356;-1.748;2024-01-27T03:14:24;9.00;;;2.47;;
69256;SDS011;56376;53.356;-1.748;2024-01-27T03:16:50;4.73;;;1.70;;
69256;SDS011;56376;53.356;-1.748;2024-01-27T03:19:16;6.40;;;1.90;;
69256;SDS011;56376;53.356;-1.748;2024-01-27T03:21:41;17.67;;;3.67;;
69256;SDS011;56376;53.356;-1.748;2024-01-27T03:24:07;5.73;;;2.03;;
69256;SDS011;56376;53.356;-1.748;2024-01-27T03:26:32;4.87;;;1.33;;
69256;SDS011;56376;53.356;-1.748;2024-01-27T03:28:58;5.37;;;1.60;;
69256;SDS011;56376;53.356;-1.748;2024-01-27T03:31:29;7.30;;;2.00;;
69256;SDS011;56376;53.356;-1.748;2024-01-27T03:33:58;7.37;;;2.20;;
69256;SDS011;56376;53.356;-1.748;2024-01-27T03:36:24;6.93;;;1.87;;
69256;SDS011;56376;53.356;-1.748;2024-01-27T03:38:49;4.87;;;1.40;;
69256;SDS011;56376;53.356;-1.748;2024-01-27T03:41:14;6.87;;;1.80;;
69256;SDS011;56376;53.356;-1.748;2024-01-27T03:43:40;6.10;;;1.73;;
69256;SDS011;56376;53.356;-1.748;2024-01-27T03:46:06;3.17;;;1.47;;
69256;SDS011;56376;53.356;-1.748;2024-01-27T03:48:32;5.60;;;1.60;;
69256;SDS011;56376;53.356;-1.748;2024-01-27T03:50:57;6.17;;;2.10;;
69256;SDS011;56376;53.356;-1.748;2024-01-27T03:53:23;9.43;;;2.40;;
69256;SDS011;56376;53.356;-1.748;2024-01-27T03:55:48;5.80;;;1.97;;
69256;SDS011;56376;53.356;-1.748;2024-01-27T03:58:13;7.40;;;2.43;;
69256;SDS011;56376;53.356;-1.748;2024-01-27T04:00:39;5.20;;;1.50;;
69256;SDS011;56376;53.356;-1.748;2024-01-27T04:03:04;6.17;;;1.60;;
69256;SDS011;56376;53.356;-1.748;2024-01-27T04:05:30;6.37;;;2.17;;
69256;SDS011;56376;53.356;-1.748;2024-01-27T04:07:56;7.27;;;2.33;;
69256;SDS011;56376;53.356;-1.748;2024-01-27T04:10:22;8.20;;;2.00;;
69256;SDS011;56376;53.356;-1.748;2024-01-27T04:12:50;7.23;;;2.33;;
69256;SDS011;56376;53.356;-1.748;2024-01-27T04:15:15;5.97;;;1.57;;
69256;SDS011;56376;53.356;-1.748;2024-01-27T04:17:41;5.47;;;2.10;;
69256;SDS011;56376;53.356;-1.748;2024-01-27T04:20:07;6.07;;;1.60;;
69256;SDS011;56376;53.356;-1.748;2024-01-27T04:22:34;8.23;;;1.67;;
69256;SDS011;56376;53.356;-1.748;2024-01-27T04:25:00;6.10;;;1.83;;
69256;SDS011;56376;53.356;-1.748;2024-01-27T04:27:29;7.50;;;2.53;;
69256;SDS011;56376;53.356;-1.748;2024-01-27T04:29:54;7.43;;;2.00;;
69256;SDS011;56376;53.356;-1.748;2024-01-27T04:32:20;6.70;;;1.93;;
69256;SDS011;56376;53.356;-1.748;2024-01-27T04:34:47;7.83;;;1.70;;
69256;SDS011;56376;53.356;-1.748;2024-01-27T04:37:13;7.40;;;1.70;;
69256;SDS011;56376;53.356;-1.748;2024-01-27T04:39:38;6.73;;;1.33;;
69256;SDS011;56376;53.356;-1.748;2024-01-27T04:42:05;6.20;;;1.63;;
69256;SDS011;56376;53.356;-1.748;2024-01-27T04:44:31;6.40;;;1.47;;
69256;SDS011;56376;53.356;-1.748;2024-01-27T04:46:57;5.17;;;1.53;;
69256;SDS011;56376;53.356;-1.748;2024-01-27T04:49:23;3.10;;;1.37;;
69256;SDS011;56376;53.356;-1.748;2024-01-27T04:51:51;7.20;;;1.97;;
69256;SDS011;56376;53.356;-1.748;2024-01-27T04:54:16;6.90;;;1.97;;
69256;SDS011;56376;53.356;-1.748;2024-01-27T04:56:42;4.70;;;1.40;;
69256;SDS011;56376;53.356;-1.748;2024-01-27T04:59:07;3.90;;;1.83;;
69256;SDS011;56376;53.356;-1.748;2024-01-27T05:01:32;4.43;;;1.70;;
69256;SDS011;56376;53.356;-1.748;2024-01-27T05:03:58;3.37;;;2.13;;
69256;SDS011;56376;53.356;-1.748;2024-01-27T05:06:24;3.67;;;1.37;;
69256;SDS011;56376;53.356;-1.748;2024-01-27T05:08:50;4.93;;;1.30;;
69256;SDS011;56376;53.356;-1.748;2024-01-27T05:11:15;4.47;;;1.47;;
69256;SDS011;56376;53.356;-1.748;2024-01-27T05:13:50;3.13;;;1.40;;
69256;SDS011;56376;53.356;-1.748;2024-01-27T05:16:15;3.50;;;1.60;;
69256;SDS011;56376;53.356;-1.748;2024-01-27T05:18:41;5.90;;;1.33;;
69256;SDS011;56376;53.356;-1.748;2024-01-27T05:21:06;4.47;;;1.60;;
69256;SDS011;56376;53.356;-1.748;2024-01-27T05:23:32;2.27;;;1.10;;
69256;SDS011;56376;53.356;-1.748;2024-01-27T05:25:57;6.50;;;1.43;;
69256;SDS011;56376;53.356;-1.748;2024-01-27T05:28:22;2.57;;;1.10;;
69256;SDS011;56376;53.356;-1.748;2024-01-27T05:30:48;2.87;;;1.13;;
69256;SDS011;56376;53.356;-1.748;2024-01-27T05:33:15;4.07;;;1.10;;
69256;SDS011;56376;53.356;-1.748;2024-01-27T05:35:41;4.83;;;1.60;;
69256;SDS011;56376;53.356;-1.748;2024-01-27T05:38:06;4.73;;;1.43;;
69256;SDS011;56376;53.356;-1.748;2024-01-27T05:40:32;3.73;;;1.40;;
69256;SDS011;56376;53.356;-1.748;2024-01-27T05:42:57;4.90;;;1.37;;
69256;SDS011;56376;53.356;-1.748;2024-01-27T05:45:23;6.57;;;2.80;;
69256;SDS011;56376;53.356;-1.748;2024-01-27T05:47:48;4.87;;;1.33;;
69256;SDS011;56376;53.356;-1.748;2024-01-27T05:50:14;4.83;;;1.73;;
69256;SDS011;56376;53.356;-1.748;2024-01-27T05:55:24;4.95;;;1.60;;
69256;SDS011;56376;53.356;-1.748;2024-01-27T05:57:49;9.93;;;2.40;;
69256;SDS011;56376;53.356;-1.748;2024-01-27T06:00:15;3.70;;;1.87;;
69256;SDS011;56376;53.356;-1.748;2024-01-27T06:02:40;4.70;;;1.43;;
69256;SDS011;56376;53.356;-1.748;2024-01-27T06:05:06;6.60;;;1.57;;
69256;SDS011;56376;53.356;-1.748;2024-01-27T06:07:34;7.07;;;1.67;;
69256;SDS011;56376;53.356;-1.748;2024-01-27T06:09:59;4.27;;;1.87;;
69256;SDS011;56376;53.356;-1.748;2024-01-27T06:12:25;3.50;;;1.27;;
69256;SDS011;56376;53.356;-1.748;2024-01-27T06:14:50;2.77;;;1.00;;
69256;SDS011;56376;53.356;-1.748;2024-01-27T06:17:16;3.73;;;1.40;;
69256;SDS011;56376;53.356;-1.748;2024-01-27T06:19:41;3.03;;;1.40;;
69256;SDS011;56376;53.356;-1.748;2024-01-27T06:22:07;3.10;;;1.40;;
69256;SDS011;56376;53.356;-1.748;2024-01-27T06:24:33;3.63;;;1.30;;
69256;SDS011;56376;53.356;-1.748;2024-01-27T06:26:58;4.03;;;1.23;;
69256;SDS011;56376;53.356;-1.748;2024-01-27T06:29:24;4.30;;;1.23;;
69256;SDS011;56376;53.356;-1.748;2024-01-27T06:31:53;2.73;;;1.20;;
69256;SDS011;56376;53.356;-1.748;2024-01-27T06:34:18;4.30;;;1.57;;
69256;SDS011;56376;53.356;-1.748;2024-01-27T06:36:44;3.77;;;1.23;;
69256;SDS011;56376;53.356;-1.748;2024-01-27T06:39:09;4.47;;;1.37;;
69256;SDS011;56376;53.356;-1.748;2024-01-27T06:41:36;5.33;;;1.50;;
69256;SDS011;56376;53.356;-1.748;2024-01-27T06:44:02;2.47;;;1.17;;
69256;SDS011;56376;53.356;-1.748;2024-01-27T06:46:28;5.47;;;1.20;;
69256;SDS011;56376;53.356;-1.748;2024-01-27T06:48:53;4.07;;;1.53;;
69256;SDS011;56376;53.356;-1.748;2024-01-27T06:51:19;4.30;;;1.30;;
69256;SDS011;56376;53.356;-1.748;2024-01-27T06:53:44;5.43;;;1.53;;
69256;SDS011;56376;53.356;-1.748;2024-01-27T06:56:11;4.00;;;1.40;;
69256;SDS011;56376;53.356;-1.748;2024-01-27T06:58:36;4.23;;;1.20;;
69256;SDS011;56376;53.356;-1.748;2024-01-27T07:01:02;3.27;;;1.20;;
69256;SDS011;56376;53.356;-1.748;2024-01-27T07:03:29;6.17;;;1.40;;
69256;SDS011;56376;53.356;-1.748;2024-01-27T07:05:54;2.83;;;1.20;;
69256;SDS011;56376;53.356;-1.748;2024-01-27T07:08:20;2.53;;;1.50;;
69256;SDS011;56376;53.356;-1.748;2024-01-27T07:10:45;7.23;;;1.77;;
69256;SDS011;56376;53.356;-1.748;2024-01-27T07:15:58;2.72;;;1.42;;
69256;SDS011;56376;53.356;-1.748;2024-01-27T07:18:24;3.63;;;1.57;;
69256;SDS011;56376;53.356;-1.748;2024-01-27T07:20:51;4.13;;;1.80;;
69256;SDS011;56376;53.356;-1.748;2024-01-27T07:23:17;5.50;;;2.07;;
69256;SDS011;56376;53.356;-1.748;2024-01-27T07:25:43;2.70;;;1.37;;
69256;SDS011;56376;53.356;-1.748;2024-01-27T07:28:09;6.00;;;1.47;;
69256;SDS011;56376;53.356;-1.748;2024-01-27T07:30:34;4.47;;;1.93;;
69256;SDS011;56376;53.356;-1.748;2024-01-27T07:33:00;3.97;;;1.47;;
69256;SDS011;56376;53.356;-1.748;2024-01-27T07:35:25;4.23;;;1.67;;
69256;SDS011;56376;53.356;-1.748;2024-01-27T07:37:51;3.33;;;1.40;;
69256;SDS011;56376;53.356;-1.748;2024-01-27T07:40:16;4.33;;;1.50;;
69256;SDS011;56376;53.356;-1.748;2024-01-27T07:42:43;4.63;;;1.20;;
69256;SDS011;56376;53.356;-1.748;2024-01-27T07:45:08;4.80;;;1.50;;
69256;SDS011;56376;53.356;-1.748;2024-01-27T07:47:34;2.43;;;1.33;;
69256;SDS011;56376;53.356;-1.748;2024-01-27T07:49:59;2.20;;;1.40;;
69256;SDS011;56376;53.356;-1.748;2024-01-27T07:52:25;5.13;;;1.30;;
69256;SDS011;56376;53.356;-1.748;2024-01-27T07:54:50;1.63;;;1.00;;
69256;SDS011;56376;53.356;-1.748;2024-01-27T07:57:16;2.80;;;1.23;;
69256;SDS011;56376;53.356;-1.748;2024-01-27T07:59:41;4.73;;;1.90;;
69256;SDS011;56376;53.356;-1.748;2024-01-27T08:02:07;2.60;;;1.33;;
69256;SDS011;56376;53.356;-1.748;2024-01-27T08:04:33;3.20;;;1.57;;
69256;SDS011;56376;53.356;-1.748;2024-01-27T08:06:58;5.10;;;1.90;;
69256;SDS011;56376;53.356;-1.748;2024-01-27T08:09:24;4.53;;;2.10;;
69256;SDS011;56376;53.356;-1.748;2024-01-27T08:14:19;4.53;;;1.77;;
69256;SDS011;56376;53.356;-1.748;2024-01-27T08:16:46;7.80;;;2.93;;
69256;SDS011;56376;53.356;-1.748;2024-01-27T08:19:11;3.97;;;1.43;;
69256;SDS011;56376;53.356;-1.748;2024-01-27T08:21:37;8.97;;;2.53;;
69256;SDS011;56376;53.356;-1.748;2024-01-27T08:24:02;6.03;;;2.17;;
69256;SDS011;56376;53.356;-1.748;2024-01-27T08:26:28;7.03;;;1.97;;
69256;SDS011;56376;53.356;-1.748;2024-01-27T08:28:53;5.47;;;1.97;;
69256;SDS011;56376;53.356;-1.748;2024-01-27T08:31:21;7.77;;;2.60;;
69256;SDS011;56376;53.356;-1.748;2024-01-27T08:33:47;7.03;;;2.07;;
69256;SDS011;56376;53.356;-1.748;2024-01-27T08:36:13;6.40;;;3.00;;
69256;SDS011;56376;53.356;-1.748;2024-01-27T08:38:39;4.00;;;2.00;;
69256;SDS011;56376;53.356;-1.748;2024-01-27T08:41:05;6.20;;;2.60;;
69256;SDS011;56376;53.356;-1.748;2024-01-27T08:43:32;6.93;;;2.40;;
69256;SDS011;56376;53.356;-1.748;2024-01-27T08:45:57;6.93;;;3.27;;
69256;SDS011;56376;53.356;-1.748;2024-01-27T08:48:25;5.77;;;2.30;;
69256;SDS011;56376;53.356;-1.748;2024-01-27T08:50:50;5.70;;;2.10;;
69256;SDS011;56376;53.356;-1.748;2024-01-27T08:53:16;4.17;;;2.37;;
69256;SDS011;56376;53.356;-1.748;2024-01-27T08:55:42;4.27;;;2.20;;
69256;SDS011;56376;53.356;-1.748;2024-01-27T08:58:07;4.27;;;2.10;;
69256;SDS011;56376;53.356;-1.748;2024-01-27T09:00:33;4.53;;;2.40;;
69256;SDS011;56376;53.356;-1.748;2024-01-27T09:02:59;7.20;;;3.03;;
69256;SDS011;56376;53.356;-1.748;2024-01-27T09:05:24;5.03;;;2.20;;
69256;SDS011;56376;53.356;-1.748;2024-01-27T09:07:50;7.20;;;2.20;;
69256;SDS011;56376;53.356;-1.748;2024-01-27T09:10:16;5.97;;;2.67;;
69256;SDS011;56376;53.356;-1.748;2024-01-27T09:12:41;6.20;;;2.57;;
69256;SDS011;56376;53.356;-1.748;2024-01-27T09:15:08;6.77;;;3.40;;
69256;SDS011;56376;53.356;-1.748;2024-01-27T09:17:33;5.43;;;2.17;;
69256;SDS011;56376;53.356;-1.748;2024-01-27T09:19:59;5.90;;;2.47;;
69256;SDS011;56376;53.356;-1.748;2024-01-27T09:22:24;6.43;;;2.30;;
69256;SDS011;56376;53.356;-1.748;2024-01-27T09:24:50;5.77;;;2.30;;
69256;SDS011;56376;53.356;-1.748;2024-01-27T09:27:17;4.23;;;2.10;;
69256;SDS011;56376;53.356;-1.748;2024-01-27T09:29:42;7.00;;;2.27;;
69256;SDS011;56376;53.356;-1.748;2024-01-27T09:32:09;6.63;;;3.03;;
69256;SDS011;56376;53.356;-1.748;2024-01-27T09:34:35;4.80;;;2.27;;
69256;SDS011;56376;53.356;-1.748;2024-01-27T09:37:01;6.87;;;2.90;;
69256;SDS011;56376;53.356;-1.748;2024-01-27T09:39:26;5.03;;;2.20;;
69256;SDS011;56376;53.356;-1.748;2024-01-27T09:41:52;7.07;;;2.80;;
69256;SDS011;56376;53.356;-1.748;2024-01-27T09:44:19;7.23;;;3.20;;
69256;SDS011;56376;53.356;-1.748;2024-01-27T09:46:46;4.47;;;1.93;;
69256;SDS011;56376;53.356;-1.748;2024-01-27T09:49:13;4.30;;;2.10;;
69256;SDS011;56376;53.356;-1.748;2024-01-27T09:51:41;10.60;;;2.50;;
69256;SDS011;56376;53.356;-1.748;2024-01-27T09:54:06;4.63;;;2.10;;
69256;SDS011;56376;53.356;-1.748;2024-01-27T09:56:32;7.00;;;2.40;;
69256;SDS011;56376;53.356;-1.748;2024-01-27T09:58:59;9.00;;;2.43;;
69256;SDS011;56376;53.356;-1.748;2024-01-27T10:01:25;6.97;;;2.83;;
69256;SDS011;56376;53.356;-1.748;2024-01-27T10:06:40;4.83;;;2.07;;
69256;SDS011;56376;53.356;-1.748;2024-01-27T10:09:06;5.93;;;2.20;;
69256;SDS011;56376;53.356;-1.748;2024-01-27T10:11:32;6.50;;;2.63;;
69256;SDS011;56376;53.356;-1.748;2024-01-27T10:14:01;5.13;;;1.90;;
69256;SDS011;56376;53.356;-1.748;2024-01-27T10:16:27;7.63;;;2.47;;
69256;SDS011;56376;53.356;-1.748;2024-01-27T10:19:02;4.50;;;2.53;;
69256;SDS011;56376;53.356;-1.748;2024-01-27T10:21:28;6.90;;;3.13;;
69256;SDS011;56376;53.356;-1.748;2024-01-27T10:23:53;6.30;;;2.80;;
69256;SDS011;56376;53.356;-1.748;2024-01-27T10:26:19;6.87;;;2.50;;
69256;SDS011;56376;53.356;-1.748;2024-01-27T10:28:54;9.27;;;2.43;;
69256;SDS011;56376;53.356;-1.748;2024-01-27T10:31:25;5.57;;;2.20;;
69256;SDS011;56376;53.356;-1.748;2024-01-27T10:33:52;5.97;;;2.63;;
69256;SDS011;56376;53.356;-1.748;2024-01-27T10:36:19;8.50;;;2.83;;
69256;SDS011;56376;53.356;-1.748;2024-01-27T10:38:44;11.80;;;4.60;;
69256;SDS011;56376;53.356;-1.748;2024-01-27T10:41:10;13.93;;;5.63;;
69256;SDS011;56376;53.356;-1.748;2024-01-27T10:43:36;15.63;;;5.50;;
69256;SDS011;56376;53.356;-1.748;2024-01-27T10:46:06;11.70;;;5.60;;
69256;SDS011;56376;53.356;-1.748;2024-01-27T10:48:36;13.90;;;4.73;;
69256;SDS011;56376;53.356;-1.748;2024-01-27T10:51:08;10.20;;;4.93;;
69256;SDS011;56376;53.356;-1.748;2024-01-27T10:53:36;13.27;;;4.77;;
69256;SDS011;56376;53.356;-1.748;2024-01-27T10:56:04;12.67;;;4.43;;
69256;SDS011;56376;53.356;-1.748;2024-01-27T10:58:34;9.80;;;4.70;;
69256;SDS011;56376;53.356;-1.748;2024-01-27T11:01:07;10.37;;;3.83;;
69256;SDS011;56376;53.356;-1.748;2024-01-27T11:03:36;7.43;;;3.10;;
69256;SDS011;56376;53.356;-1.748;2024-01-27T11:06:05;11.40;;;3.40;;
69256;SDS011;56376;53.356;-1.748;2024-01-27T11:08:31;7.90;;;2.60;;
69256;SDS011;56376;53.356;-1.748;2024-01-27T11:10:59;10.27;;;3.00;;
69256;SDS011;56376;53.356;-1.748;2024-01-27T11:13:28;10.17;;;2.73;;
69256;SDS011;56376;53.356;-1.748;2024-01-27T11:15:55;3.97;;;2.13;;
69256;SDS011;56376;53.356;-1.748;2024-01-27T11:18:24;11.43;;;2.93;;
69256;SDS011;56376;53.356;-1.748;2024-01-27T11:20:53;4.40;;;1.90;;
69256;SDS011;56376;53.356;-1.748;2024-01-27T11:23:19;11.27;;;2.67;;
69256;SDS011;56376;53.356;-1.748;2024-01-27T11:25:45;12.93;;;3.53;;
69256;SDS011;56376;53.356;-1.748;2024-01-27T11:28:17;9.77;;;2.67;;
69256;SDS011;56376;53.356;-1.748;2024-01-27T11:30:48;5.88;;;2.28;;
69256;SDS011;56376;53.356;-1.748;2024-01-27T11:33:24;5.55;;;2.28;;
69256;SDS011;56376;53.356;-1.748;2024-01-27T11:36:00;9.07;;;3.40;;
69256;SDS011;56376;53.356;-1.748;2024-01-27T11:38:27;7.20;;;2.40;;
69256;SDS011;56376;53.356;-1.748;2024-01-27T11:40:53;9.77;;;2.80;;
69256;SDS011;56376;53.356;-1.748;2024-01-27T11:43:18;10.00;;;3.10;;
69256;SDS011;56376;53.356;-1.748;2024-01-27T11:45:54;12.30;;;2.97;;
69256;SDS011;56376;53.356;-1.748;2024-01-27T11:48:23;7.43;;;1.97;;
69256;SDS011;56376;53.356;-1.748;2024-01-27T11:50:49;6.33;;;2.60;;
69256;SDS011;56376;53.356;-1.748;2024-01-27T11:53:25;12.50;;;3.00;;
69256;SDS011;56376;53.356;-1.748;2024-01-27T11:55:56;4.53;;;1.97;;
69256;SDS011;56376;53.356;-1.748;2024-01-27T11:58:22;9.57;;;2.85;;
69256;SDS011;56376;53.356;-1.748;2024-01-27T12:00:47;8.27;;;2.53;;
69256;SDS011;56376;53.356;-1.748;2024-01-27T12:03:14;9.10;;;2.30;;
69256;SDS011;56376;53.356;-1.748;2024-01-27T12:05:40;9.63;;;3.90;;
69256;SDS011;56376;53.356;-1.748;2024-01-27T12:08:07;7.37;;;2.50;;
69256;SDS011;56376;53.356;-1.748;2024-01-27T12:10:33;8.97;;;2.53;;
69256;SDS011;56376;53.356;-1.748;2024-01-27T12:13:00;7.83;;;2.97;;
69256;SDS011;56376;53.356;-1.748;2024-01-27T12:15:26;7.53;;;2.70;;
69256;SDS011;56376;53.356;-1.748;2024-01-27T12:17:51;8.93;;;2.50;;
69256;SDS011;56376;53.356;-1.748;2024-01-27T12:20:18;6.43;;;2.63;;
69256;SDS011;56376;53.356;-1.748;2024-01-27T12:22:44;5.82;;;2.20;;
69256;SDS011;56376;53.356;-1.748;2024-01-27T12:25:10;6.40;;;2.47;;
69256;SDS011;56376;53.356;-1.748;2024-01-27T12:27:39;6.27;;;2.60;;
69256;SDS011;56376;53.356;-1.748;2024-01-27T12:30:05;6.32;;;2.55;;
69256;SDS011;56376;53.356;-1.748;2024-01-27T12:32:31;8.00;;;2.80;;
69256;SDS011;56376;53.356;-1.748;2024-01-27T12:34:57;7.00;;;2.45;;
69256;SDS011;56376;53.356;-1.748;2024-01-27T12:37:25;6.32;;;2.33;;
69256;SDS011;56376;53.356;-1.748;2024-01-27T12:39:51;7.10;;;2.35;;
69256;SDS011;56376;53.356;-1.748;2024-01-27T12:42:17;8.35;;;2.88;;
69256;SDS011;56376;53.356;-1.748;2024-01-27T12:44:42;8.07;;;2.33;;
69256;SDS011;56376;53.356;-1.748;2024-01-27T12:47:11;8.48;;;2.72;;
69256;SDS011;56376;53.356;-1.748;2024-01-27T12:49:38;9.10;;;2.47;;
69256;SDS011;56376;53.356;-1.748;2024-01-27T12:52:04;11.68;;;3.50;;
69256;SDS011;56376;53.356;-1.748;2024-01-27T12:54:30;7.20;;;2.67;;
69256;SDS011;56376;53.356;-1.748;2024-01-27T12:56:56;9.48;;;3.03;;
69256;SDS011;56376;53.356;-1.748;2024-01-27T12:59:22;6.32;;;2.60;;
69256;SDS011;56376;53.356;-1.748;2024-01-27T13:01:48;4.72;;;2.25;;
69256;SDS011;56376;53.356;-1.748;2024-01-27T13:04:14;6.13;;;2.20;;
69256;SDS011;56376;53.356;-1.748;2024-01-27T13:06:40;8.35;;;2.25;;
69256;SDS011;56376;53.356;-1.748;2024-01-27T13:09:06;6.28;;;1.98;;
69256;SDS011;56376;53.356;-1.748;2024-01-27T13:11:36;5.32;;;1.92;;
69256;SDS011;56376;53.356;-1.748;2024-01-27T13:14:01;6.63;;;2.00;;
69256;SDS011;56376;53.356;-1.748;2024-01-27T13:16:27;6.85;;;2.40;;
69256;SDS011;56376;53.356;-1.748;2024-01-27T13:18:52;9.55;;;3.35;;
69256;SDS011;56376;53.356;-1.748;2024-01-27T13:21:18;4.50;;;1.98;;
69256;SDS011;56376;53.356;-1.748;2024-01-27T13:23:44;5.88;;;1.98;;
69256;SDS011;56376;53.356;-1.748;2024-01-27T13:26:09;7.20;;;1.95;;
69256;SDS011;56376;53.356;-1.748;2024-01-27T13:28:35;8.57;;;2.97;;
69256;SDS011;56376;53.356;-1.748;2024-01-27T13:31:00;5.03;;;1.60;;
69256;SDS011;56376;53.356;-1.748;2024-01-27T13:33:26;7.00;;;1.77;;
69256;SDS011;56376;53.356;-1.748;2024-01-27T13:35:53;4.80;;;1.83;;
69256;SDS011;56376;53.356;-1.748;2024-01-27T13:38:19;4.32;;;1.70;;
69256;SDS011;56376;53.356;-1.748;2024-01-27T13:40:51;6.43;;;1.70;;
69256;SDS011;56376;53.356;-1.748;2024-01-27T13:43:17;6.40;;;2.28;;
69256;SDS011;56376;53.356;-1.748;2024-01-27T13:45:42;3.55;;;1.73;;
69256;SDS011;56376;53.356;-1.748;2024-01-27T13:48:08;5.40;;;1.90;;
69256;SDS011;56376;53.356;-1.748;2024-01-27T13:50:34;4.43;;;2.22;;
69256;SDS011;56376;53.356;-1.748;2024-01-27T13:53:00;5.82;;;2.10;;
69256;SDS011;56376;53.356;-1.748;2024-01-27T13:55:26;6.80;;;2.10;;
69256;SDS011;56376;53.356;-1.748;2024-01-27T13:57:51;7.20;;;2.50;;
69256;SDS011;56376;53.356;-1.748;2024-01-27T14:00:18;5.40;;;2.00;;
69256;SDS011;56376;53.356;-1.748;2024-01-27T14:02:44;3.53;;;1.85;;
69256;SDS011;56376;53.356;-1.748;2024-01-27T14:05:09;10.05;;;3.42;;
69256;SDS011;56376;53.356;-1.748;2024-01-27T14:07:35;8.45;;;1.90;;
69256;SDS011;56376;53.356;-1.748;2024-01-27T14:10:01;4.68;;;1.80;;
69256;SDS011;56376;53.356;-1.748;2024-01-27T14:12:27;6.57;;;2.05;;
69256;SDS011;56376;53.356;-1.748;2024-01-27T14:14:53;10.02;;;2.95;;
69256;SDS011;56376;53.356;-1.748;2024-01-27T14:17:19;5.45;;;1.92;;
69256;SDS011;56376;53.356;-1.748;2024-01-27T14:19:47;7.88;;;2.42;;
69256;SDS011;56376;53.356;-1.748;2024-01-27T14:22:13;9.02;;;2.47;;
69256;SDS011;56376;53.356;-1.748;2024-01-27T14:24:39;2.78;;;1.48;;
69256;SDS011;56376;53.356;-1.748;2024-01-27T14:27:07;6.75;;;2.00;;
69256;SDS011;56376;53.356;-1.748;2024-01-27T14:29:33;8.75;;;2.22;;
69256;SDS011;56376;53.356;-1.748;2024-01-27T14:32:01;6.65;;;2.10;;
69256;SDS011;56376;53.356;-1.748;2024-01-27T14:34:28;8.48;;;2.67;;
69256;SDS011;56376;53.356;-1.748;2024-01-27T14:36:53;4.95;;;2.08;;
69256;SDS011;56376;53.356;-1.748;2024-01-27T14:39:20;8.18;;;2.17;;
69256;SDS011;56376;53.356;-1.748;2024-01-27T14:41:46;5.15;;;2.00;;
69256;SDS011;56376;53.356;-1.748;2024-01-27T14:44:11;6.35;;;1.92;;
69256;SDS011;56376;53.356;-1.748;2024-01-27T14:46:37;5.78;;;2.05;;